sensor_id;sensor_type;location;lat;lon;timestamp;temperature;humidity
2783;DHT22;1399;47.072;15.452;2023-12-20T00:02:20;8.50;50.90
2783;DHT22;1399;47.072;15.452;2023-12-20T00:04:45;8.50;50.80
2783;DHT22;1399;47.072;15.452;2023-12-20T00:07:11;8.50;50.80
2783;DHT22;1399;47.072;15.452;2023-12-20T00:09:37;8.50;50.80
2783;DHT22;1399;47.072;15.452;2023-12-20T00:12:03;8.50;51.50
2783;DHT22;1399;47.072;15.452;2023-12-20T00:14:28;8.50;50.80
2783;DHT22;1399;47.072;15.452;2023-12-20T00:16:54;8.50;50.80
2783;DHT22;1399;47.072;15.452;2023-12-20T00:19:20;8.50;50.80
2783;DHT22;1399;47.072;15.452;2023-12-20T00:21:45;8.50;50.80
2783;DHT22;1399;47.072;15.452;2023-12-20T00:24:11;8.50;50.80
2783;DHT22;1399;47.072;15.452;2023-12-20T00:26:37;8.50;50.80
2783;DHT22;1399;47.072;15.452;2023-12-20T00:29:02;8.50;51.50
2783;DHT22;1399;47.072;15.452;2023-12-20T00:31:28;8.50;50.90
2783;DHT22;1399;47.072;15.452;2023-12-20T00:33:54;8.50;50.80
2783;DHT22;1399;47.072;15.452;2023-12-20T00:36:20;8.50;50.80
2783;DHT22;1399;47.072;15.452;2023-12-20T00:38:45;8.50;50.70
2783;DHT22;1399;47.072;15.452;2023-12-20T00:41:11;8.50;50.70
2783;DHT22;1399;47.072;15.452;2023-12-20T00:43:37;8.50;50.60
2783;DHT22;1399;47.072;15.452;2023-12-20T00:46:03;8.50;50.60
2783;DHT22;1399;47.072;15.452;2023-12-20T00:48:28;8.50;50.60
2783;DHT22;1399;47.072;15.452;2023-12-20T00:50:56;8.40;50.50
2783;DHT22;1399;47.072;15.452;2023-12-20T00:53:21;8.50;50.60
2783;DHT22;1399;47.072;15.452;2023-12-20T00:55:47;8.50;50.60
2783;DHT22;1399;47.072;15.452;2023-12-20T00:58:14;8.50;50.60
2783;DHT22;1399;47.072;15.452;2023-12-20T01:00:40;8.50;50.50
2783;DHT22;1399;47.072;15.452;2023-12-20T01:03:07;8.50;50.50
2783;DHT22;1399;47.072;15.452;2023-12-20T01:05:33;8.40;50.40
2783;DHT22;1399;47.072;15.452;2023-12-20T01:07:59;8.50;50.40
2783;DHT22;1399;47.072;15.452;2023-12-20T01:10:24;8.50;50.40
2783;DHT22;1399;47.072;15.452;2023-12-20T01:12:54;8.50;50.40
2783;DHT22;1399;47.072;15.452;2023-12-20T01:15:19;8.50;50.30
2783;DHT22;1399;47.072;15.452;2023-12-20T01:17:45;8.50;50.30
2783;DHT22;1399;47.072;15.452;2023-12-20T01:20:10;8.40;50.20
2783;DHT22;1399;47.072;15.452;2023-12-20T01:22:36;8.40;50.20
2783;DHT22;1399;47.072;15.452;2023-12-20T01:25:03;8.40;50.10
2783;DHT22;1399;47.072;15.452;2023-12-20T01:27:30;8.40;50.10
2783;DHT22;1399;47.072;15.452;2023-12-20T01:29:57;8.40;50.10
2783;DHT22;1399;47.072;15.452;2023-12-20T01:32:22;8.40;50.10
2783;DHT22;1399;47.072;15.452;2023-12-20T01:34:48;8.40;50.10
2783;DHT22;1399;47.072;15.452;2023-12-20T01:37:14;8.40;50.00
2783;DHT22;1399;47.072;15.452;2023-12-20T01:39:39;8.40;50.00
2783;DHT22;1399;47.072;15.452;2023-12-20T01:42:05;8.40;50.00
2783;DHT22;1399;47.072;15.452;2023-12-20T01:44:31;8.40;50.00
2783;DHT22;1399;47.072;15.452;2023-12-20T01:46:57;8.40;50.00
2783;DHT22;1399;47.072;15.452;2023-12-20T01:49:23;8.40;49.90
2783;DHT22;1399;47.072;15.452;2023-12-20T01:51:50;8.40;50.00
2783;DHT22;1399;47.072;15.452;2023-12-20T01:54:16;8.40;50.00
2783;DHT22;1399;47.072;15.452;2023-12-20T01:56:43;8.40;50.00
2783;DHT22;1399;47.072;15.452;2023-12-20T01:59:09;8.30;49.80
2783;DHT22;1399;47.072;15.452;2023-12-20T02:01:35;8.30;49.80
2783;DHT22;1399;47.072;15.452;2023-12-20T02:04:01;8.30;49.80
2783;DHT22;1399;47.072;15.452;2023-12-20T02:06:30;8.30;49.90
2783;DHT22;1399;47.072;15.452;2023-12-20T02:08:58;8.30;49.80
2783;DHT22;1399;47.072;15.452;2023-12-20T02:11:25;8.30;49.80
2783;DHT22;1399;47.072;15.452;2023-12-20T02:13:51;8.30;49.80
2783;DHT22;1399;47.072;15.452;2023-12-20T02:16:17;8.30;49.80
2783;DHT22;1399;47.072;15.452;2023-12-20T02:18:43;8.30;49.90
2783;DHT22;1399;47.072;15.452;2023-12-20T02:21:10;8.30;49.90
2783;DHT22;1399;47.072;15.452;2023-12-20T02:23:35;8.30;49.90
2783;DHT22;1399;47.072;15.452;2023-12-20T02:26:02;8.20;49.90
2783;DHT22;1399;47.072;15.452;2023-12-20T02:28:28;8.20;49.90
2783;DHT22;1399;47.072;15.452;2023-12-20T02:30:55;8.20;49.90
2783;DHT22;1399;47.072;15.452;2023-12-20T02:33:20;8.20;49.90
2783;DHT22;1399;47.072;15.452;2023-12-20T02:35:46;8.20;50.00
2783;DHT22;1399;47.072;15.452;2023-12-20T02:38:13;8.20;49.90
2783;DHT22;1399;47.072;15.452;2023-12-20T02:40:38;8.20;49.90
2783;DHT22;1399;47.072;15.452;2023-12-20T02:43:04;8.20;49.90
2783;DHT22;1399;47.072;15.452;2023-12-20T02:45:30;8.20;49.90
2783;DHT22;1399;47.072;15.452;2023-12-20T02:47:55;8.20;49.80
2783;DHT22;1399;47.072;15.452;2023-12-20T02:50:21;8.20;49.90
2783;DHT22;1399;47.072;15.452;2023-12-20T02:52:47;8.20;49.90
2783;DHT22;1399;47.072;15.452;2023-12-20T02:55:13;8.20;49.80
2783;DHT22;1399;47.072;15.452;2023-12-20T02:57:39;8.10;49.70
2783;DHT22;1399;47.072;15.452;2023-12-20T03:00:09;8.10;49.70
2783;DHT22;1399;47.072;15.452;2023-12-20T03:02:36;8.10;49.60
2783;DHT22;1399;47.072;15.452;2023-12-20T03:05:02;8.10;49.70
2783;DHT22;1399;47.072;15.452;2023-12-20T03:07:28;8.10;49.70
2783;DHT22;1399;47.072;15.452;2023-12-20T03:09:53;8.10;49.70
2783;DHT22;1399;47.072;15.452;2023-12-20T03:12:19;8.10;49.70
2783;DHT22;1399;47.072;15.452;2023-12-20T03:14:45;8.10;49.70
2783;DHT22;1399;47.072;15.452;2023-12-20T03:17:11;8.10;49.70
2783;DHT22;1399;47.072;15.452;2023-12-20T03:19:37;8.10;49.60
2783;DHT22;1399;47.072;15.452;2023-12-20T03:22:02;8.10;49.70
2783;DHT22;1399;47.072;15.452;2023-12-20T03:24:28;8.10;49.60
2783;DHT22;1399;47.072;15.452;2023-12-20T03:26:54;8.10;49.60
2783;DHT22;1399;47.072;15.452;2023-12-20T03:29:19;8.00;49.50
2783;DHT22;1399;47.072;15.452;2023-12-20T03:31:45;8.00;49.50
2783;DHT22;1399;47.072;15.452;2023-12-20T03:34:11;8.00;49.50
2783;DHT22;1399;47.072;15.452;2023-12-20T03:36:37;8.00;49.50
2783;DHT22;1399;47.072;15.452;2023-12-20T03:39:03;8.00;49.50
2783;DHT22;1399;47.072;15.452;2023-12-20T03:41:29;8.00;49.50
2783;DHT22;1399;47.072;15.452;2023-12-20T03:43:54;8.00;49.60
2783;DHT22;1399;47.072;15.452;2023-12-20T03:46:20;8.00;49.60
2783;DHT22;1399;47.072;15.452;2023-12-20T03:48:45;8.00;49.60
2783;DHT22;1399;47.072;15.452;2023-12-20T03:51:11;8.00;49.60
2783;DHT22;1399;47.072;15.452;2023-12-20T03:53:37;8.00;49.60
2783;DHT22;1399;47.072;15.452;2023-12-20T03:56:03;8.00;49.60
2783;DHT22;1399;47.072;15.452;2023-12-20T03:58:29;8.00;49.60
2783;DHT22;1399;47.072;15.452;2023-12-20T04:00:54;8.00;49.60
2783;DHT22;1399;47.072;15.452;2023-12-20T04:03:20;8.00;49.50
2783;DHT22;1399;47.072;15.452;2023-12-20T04:05:46;8.00;49.60
2783;DHT22;1399;47.072;15.452;2023-12-20T04:08:11;8.00;49.60
2783;DHT22;1399;47.072;15.452;2023-12-20T04:10:37;8.00;49.50
2783;DHT22;1399;47.072;15.452;2023-12-20T04:13:04;8.00;49.50
2783;DHT22;1399;47.072;15.452;2023-12-20T04:15:30;8.00;49.50
2783;DHT22;1399;47.072;15.452;2023-12-20T04:17:55;8.00;49.50
2783;DHT22;1399;47.072;15.452;2023-12-20T04:20:21;8.00;49.50
2783;DHT22;1399;47.072;15.452;2023-12-20T04:22:47;8.00;49.40
2783;DHT22;1399;47.072;15.452;2023-12-20T04:25:12;8.00;49.40
2783;DHT22;1399;47.072;15.452;2023-12-20T04:27:38;8.00;49.30
2783;DHT22;1399;47.072;15.452;2023-12-20T04:30:04;8.00;49.30
2783;DHT22;1399;47.072;15.452;2023-12-20T04:32:30;8.00;49.30
2783;DHT22;1399;47.072;15.452;2023-12-20T04:34:57;8.00;49.30
2783;DHT22;1399;47.072;15.452;2023-12-20T04:37:22;8.00;49.30
2783;DHT22;1399;47.072;15.452;2023-12-20T04:39:48;8.00;49.20
2783;DHT22;1399;47.072;15.452;2023-12-20T04:42:14;8.00;49.30
2783;DHT22;1399;47.072;15.452;2023-12-20T04:44:40;8.00;49.20
2783;DHT22;1399;47.072;15.452;2023-12-20T04:47:05;8.00;49.20
2783;DHT22;1399;47.072;15.452;2023-12-20T04:49:31;8.00;49.20
2783;DHT22;1399;47.072;15.452;2023-12-20T04:51:57;8.00;49.10
2783;DHT22;1399;47.072;15.452;2023-12-20T04:54:22;8.00;49.00
2783;DHT22;1399;47.072;15.452;2023-12-20T04:56:49;8.00;49.00
2783;DHT22;1399;47.072;15.452;2023-12-20T04:59:15;8.00;49.00
2783;DHT22;1399;47.072;15.452;2023-12-20T05:01:40;8.00;49.00
2783;DHT22;1399;47.072;15.452;2023-12-20T05:04:06;8.00;48.90
2783;DHT22;1399;47.072;15.452;2023-12-20T05:06:32;8.00;48.90
2783;DHT22;1399;47.072;15.452;2023-12-20T05:08:58;8.00;48.90
2783;DHT22;1399;47.072;15.452;2023-12-20T05:11:24;8.00;48.80
2783;DHT22;1399;47.072;15.452;2023-12-20T05:13:49;8.00;48.80
2783;DHT22;1399;47.072;15.452;2023-12-20T05:16:15;7.90;48.70
2783;DHT22;1399;47.072;15.452;2023-12-20T05:18:44;8.00;48.90
2783;DHT22;1399;47.072;15.452;2023-12-20T05:21:10;8.00;48.90
2783;DHT22;1399;47.072;15.452;2023-12-20T05:23:36;8.00;48.90
2783;DHT22;1399;47.072;15.452;2023-12-20T05:26:01;7.90;48.80
2783;DHT22;1399;47.072;15.452;2023-12-20T05:28:27;7.90;48.80
2783;DHT22;1399;47.072;15.452;2023-12-20T05:30:53;7.90;48.90
2783;DHT22;1399;47.072;15.452;2023-12-20T05:33:19;7.90;48.90
2783;DHT22;1399;47.072;15.452;2023-12-20T05:35:45;7.90;48.90
2783;DHT22;1399;47.072;15.452;2023-12-20T05:38:10;7.90;48.90
2783;DHT22;1399;47.072;15.452;2023-12-20T05:40:36;7.90;48.90
2783;DHT22;1399;47.072;15.452;2023-12-20T05:43:02;7.90;48.80
2783;DHT22;1399;47.072;15.452;2023-12-20T05:45:28;7.90;48.80
2783;DHT22;1399;47.072;15.452;2023-12-20T05:47:53;7.90;48.80
2783;DHT22;1399;47.072;15.452;2023-12-20T05:50:19;7.90;48.80
2783;DHT22;1399;47.072;15.452;2023-12-20T05:52:45;7.90;48.90
2783;DHT22;1399;47.072;15.452;2023-12-20T05:55:10;7.90;48.90
2783;DHT22;1399;47.072;15.452;2023-12-20T05:57:36;7.90;48.90
2783;DHT22;1399;47.072;15.452;2023-12-20T06:00:02;7.90;48.90
2783;DHT22;1399;47.072;15.452;2023-12-20T06:02:28;7.90;49.00
2783;DHT22;1399;47.072;15.452;2023-12-20T06:04:54;7.90;49.00
2783;DHT22;1399;47.072;15.452;2023-12-20T06:07:20;7.80;49.00
2783;DHT22;1399;47.072;15.452;2023-12-20T06:09:46;7.90;49.70
2783;DHT22;1399;47.072;15.452;2023-12-20T06:12:12;7.90;49.10
2783;DHT22;1399;47.072;15.452;2023-12-20T06:14:37;7.90;49.20
2783;DHT22;1399;47.072;15.452;2023-12-20T06:17:03;7.90;49.20
2783;DHT22;1399;47.072;15.452;2023-12-20T06:19:29;7.90;49.20
2783;DHT22;1399;47.072;15.452;2023-12-20T06:21:54;7.90;49.30
2783;DHT22;1399;47.072;15.452;2023-12-20T06:24:20;8.00;49.30
2783;DHT22;1399;47.072;15.452;2023-12-20T06:26:47;8.00;49.30
2783;DHT22;1399;47.072;15.452;2023-12-20T06:29:12;8.00;49.30
2783;DHT22;1399;47.072;15.452;2023-12-20T06:31:38;8.00;49.30
2783;DHT22;1399;47.072;15.452;2023-12-20T06:34:04;8.00;49.40
2783;DHT22;1399;47.072;15.452;2023-12-20T06:36:29;8.00;49.40
2783;DHT22;1399;47.072;15.452;2023-12-20T06:38:55;8.00;49.40
2783;DHT22;1399;47.072;15.452;2023-12-20T06:41:21;8.00;49.30
2783;DHT22;1399;47.072;15.452;2023-12-20T06:43:46;8.10;49.40
2783;DHT22;1399;47.072;15.452;2023-12-20T06:46:12;8.10;49.40
2783;DHT22;1399;47.072;15.452;2023-12-20T06:48:39;8.10;49.40
2783;DHT22;1399;47.072;15.452;2023-12-20T06:51:05;8.10;49.40
2783;DHT22;1399;47.072;15.452;2023-12-20T06:53:31;8.10;49.40
2783;DHT22;1399;47.072;15.452;2023-12-20T06:55:57;8.10;49.50
2783;DHT22;1399;47.072;15.452;2023-12-20T06:58:23;8.10;49.50
2783;DHT22;1399;47.072;15.452;2023-12-20T07:00:50;8.10;49.50
2783;DHT22;1399;47.072;15.452;2023-12-20T07:03:15;8.10;49.50
2783;DHT22;1399;47.072;15.452;2023-12-20T07:05:41;8.10;49.50
2783;DHT22;1399;47.072;15.452;2023-12-20T07:08:07;8.10;49.60
2783;DHT22;1399;47.072;15.452;2023-12-20T07:10:33;8.20;49.70
2783;DHT22;1399;47.072;15.452;2023-12-20T07:12:59;8.20;49.70
2783;DHT22;1399;47.072;15.452;2023-12-20T07:15:24;8.20;49.80
2783;DHT22;1399;47.072;15.452;2023-12-20T07:17:50;8.20;49.80
2783;DHT22;1399;47.072;15.452;2023-12-20T07:20:16;8.20;49.80
2783;DHT22;1399;47.072;15.452;2023-12-20T07:22:41;8.30;49.90
2783;DHT22;1399;47.072;15.452;2023-12-20T07:25:07;8.30;49.90
2783;DHT22;1399;47.072;15.452;2023-12-20T07:27:33;8.30;49.90
2783;DHT22;1399;47.072;15.452;2023-12-20T07:29:59;8.30;50.00
2783;DHT22;1399;47.072;15.452;2023-12-20T07:32:24;8.30;50.00
2783;DHT22;1399;47.072;15.452;2023-12-20T07:34:50;8.40;50.10
2783;DHT22;1399;47.072;15.452;2023-12-20T07:37:16;8.40;50.10
2783;DHT22;1399;47.072;15.452;2023-12-20T07:39:42;8.40;50.10
2783;DHT22;1399;47.072;15.452;2023-12-20T07:42:08;8.40;50.10
2783;DHT22;1399;47.072;15.452;2023-12-20T07:44:34;8.40;50.20
2783;DHT22;1399;47.072;15.452;2023-12-20T07:47:01;8.40;50.10
2783;DHT22;1399;47.072;15.452;2023-12-20T07:49:27;8.50;50.20
2783;DHT22;1399;47.072;15.452;2023-12-20T07:51:53;8.50;50.20
2783;DHT22;1399;47.072;15.452;2023-12-20T07:54:18;8.50;50.30
2783;DHT22;1399;47.072;15.452;2023-12-20T07:56:45;8.50;50.50
2783;DHT22;1399;47.072;15.452;2023-12-20T07:59:10;8.60;50.40
2783;DHT22;1399;47.072;15.452;2023-12-20T08:01:36;8.50;50.30
2783;DHT22;1399;47.072;15.452;2023-12-20T08:04:02;8.60;50.40
2783;DHT22;1399;47.072;15.452;2023-12-20T08:06:27;8.60;50.40
2783;DHT22;1399;47.072;15.452;2023-12-20T08:08:53;8.60;50.50
2783;DHT22;1399;47.072;15.452;2023-12-20T08:11:19;8.70;50.50
2783;DHT22;1399;47.072;15.452;2023-12-20T08:13:44;8.70;50.60
2783;DHT22;1399;47.072;15.452;2023-12-20T08:16:10;8.70;50.60
2783;DHT22;1399;47.072;15.452;2023-12-20T08:18:39;8.70;50.70
2783;DHT22;1399;47.072;15.452;2023-12-20T08:21:04;8.70;50.70
2783;DHT22;1399;47.072;15.452;2023-12-20T08:23:33;8.80;50.80
2783;DHT22;1399;47.072;15.452;2023-12-20T08:26:06;8.80;50.80
2783;DHT22;1399;47.072;15.452;2023-12-20T08:28:32;8.80;50.80
2783;DHT22;1399;47.072;15.452;2023-12-20T08:30:58;8.80;50.80
2783;DHT22;1399;47.072;15.452;2023-12-20T08:33:24;8.90;50.90
2783;DHT22;1399;47.072;15.452;2023-12-20T08:35:50;8.90;50.90
2783;DHT22;1399;47.072;15.452;2023-12-20T08:38:15;9.00;50.90
2783;DHT22;1399;47.072;15.452;2023-12-20T08:40:42;9.00;50.90
2783;DHT22;1399;47.072;15.452;2023-12-20T08:43:08;9.00;50.90
2783;DHT22;1399;47.072;15.452;2023-12-20T08:45:33;9.00;50.90
2783;DHT22;1399;47.072;15.452;2023-12-20T08:47:59;9.10;50.90
2783;DHT22;1399;47.072;15.452;2023-12-20T08:50:25;9.10;50.90
2783;DHT22;1399;47.072;15.452;2023-12-20T08:52:51;9.20;51.00
2783;DHT22;1399;47.072;15.452;2023-12-20T08:55:16;9.20;51.00
2783;DHT22;1399;47.072;15.452;2023-12-20T08:57:44;9.20;51.10
2783;DHT22;1399;47.072;15.452;2023-12-20T09:00:10;9.30;51.10
2783;DHT22;1399;47.072;15.452;2023-12-20T09:02:35;9.30;51.10
2783;DHT22;1399;47.072;15.452;2023-12-20T09:05:02;9.30;51.20
2783;DHT22;1399;47.072;15.452;2023-12-20T09:07:27;9.40;51.20
2783;DHT22;1399;47.072;15.452;2023-12-20T09:09:56;9.40;51.20
2783;DHT22;1399;47.072;15.452;2023-12-20T09:12:22;9.40;51.20
2783;DHT22;1399;47.072;15.452;2023-12-20T09:14:49;9.40;51.20
2783;DHT22;1399;47.072;15.452;2023-12-20T09:17:15;9.40;51.10
2783;DHT22;1399;47.072;15.452;2023-12-20T09:19:42;9.50;51.20
2783;DHT22;1399;47.072;15.452;2023-12-20T09:22:09;9.50;51.00
2783;DHT22;1399;47.072;15.452;2023-12-20T09:24:35;9.50;50.90
2783;DHT22;1399;47.072;15.452;2023-12-20T09:27:01;9.50;50.70
2783;DHT22;1399;47.072;15.452;2023-12-20T09:29:28;9.60;50.70
2783;DHT22;1399;47.072;15.452;2023-12-20T09:31:54;9.60;50.70
2783;DHT22;1399;47.072;15.452;2023-12-20T09:34:19;9.60;50.70
2783;DHT22;1399;47.072;15.452;2023-12-20T09:36:45;9.60;50.70
2783;DHT22;1399;47.072;15.452;2023-12-20T09:39:17;9.60;50.70
2783;DHT22;1399;47.072;15.452;2023-12-20T09:42:02;9.70;50.60
2783;DHT22;1399;47.072;15.452;2023-12-20T09:44:29;9.70;50.60
2783;DHT22;1399;47.072;15.452;2023-12-20T09:46:55;9.70;50.50
2783;DHT22;1399;47.072;15.452;2023-12-20T09:49:22;9.80;50.60
2783;DHT22;1399;47.072;15.452;2023-12-20T09:51:50;9.80;50.40
2783;DHT22;1399;47.072;15.452;2023-12-20T09:54:20;9.90;50.50
2783;DHT22;1399;47.072;15.452;2023-12-20T09:56:46;9.90;50.30
2783;DHT22;1399;47.072;15.452;2023-12-20T09:59:12;9.90;50.30
2783;DHT22;1399;47.072;15.452;2023-12-20T10:01:39;10.00;49.40
2783;DHT22;1399;47.072;15.452;2023-12-20T10:04:06;10.00;49.30
2783;DHT22;1399;47.072;15.452;2023-12-20T10:06:41;10.00;49.20
2783;DHT22;1399;47.072;15.452;2023-12-20T10:09:07;10.00;49.80
2783;DHT22;1399;47.072;15.452;2023-12-20T10:11:35;10.10;49.20
2783;DHT22;1399;47.072;15.452;2023-12-20T10:14:01;10.10;49.20
2783;DHT22;1399;47.072;15.452;2023-12-20T10:16:27;10.10;49.30
2783;DHT22;1399;47.072;15.452;2023-12-20T10:18:56;10.10;49.50
2783;DHT22;1399;47.072;15.452;2023-12-20T10:21:23;10.20;49.50
2783;DHT22;1399;47.072;15.452;2023-12-20T10:23:49;10.20;49.70
2783;DHT22;1399;47.072;15.452;2023-12-20T10:26:23;10.20;49.60
2783;DHT22;1399;47.072;15.452;2023-12-20T10:29:00;10.20;49.50
2783;DHT22;1399;47.072;15.452;2023-12-20T10:31:31;10.30;49.60
2783;DHT22;1399;47.072;15.452;2023-12-20T10:33:58;10.30;49.60
2783;DHT22;1399;47.072;15.452;2023-12-20T10:36:30;10.40;50.20
2783;DHT22;1399;47.072;15.452;2023-12-20T10:38:57;10.40;49.40
2783;DHT22;1399;47.072;15.452;2023-12-20T10:41:29;10.50;49.40
2783;DHT22;1399;47.072;15.452;2023-12-20T10:44:04;10.50;49.40
2783;DHT22;1399;47.072;15.452;2023-12-20T10:46:34;10.50;49.40
2783;DHT22;1399;47.072;15.452;2023-12-20T10:49:02;10.50;49.30
2783;DHT22;1399;47.072;15.452;2023-12-20T10:51:28;10.60;49.30
2783;DHT22;1399;47.072;15.452;2023-12-20T10:53:55;10.60;49.30
2783;DHT22;1399;47.072;15.452;2023-12-20T10:56:21;10.60;49.30
2783;DHT22;1399;47.072;15.452;2023-12-20T10:58:49;10.60;49.30
2783;DHT22;1399;47.072;15.452;2023-12-20T11:01:16;10.60;49.30
2783;DHT22;1399;47.072;15.452;2023-12-20T11:03:51;10.60;49.20
2783;DHT22;1399;47.072;15.452;2023-12-20T11:17:08;10.70;49.30
2783;DHT22;1399;47.072;15.452;2023-12-20T11:22:22;10.70;49.30
2783;DHT22;1399;47.072;15.452;2023-12-20T11:24:49;10.70;49.30
2783;DHT22;1399;47.072;15.452;2023-12-20T11:27:15;10.80;49.30
2783;DHT22;1399;47.072;15.452;2023-12-20T11:29:41;10.80;49.30
2783;DHT22;1399;47.072;15.452;2023-12-20T11:34:59;10.80;49.10
2783;DHT22;1399;47.072;15.452;2023-12-20T11:37:29;10.90;49.20
2783;DHT22;1399;47.072;15.452;2023-12-20T11:40:04;10.90;49.20
2783;DHT22;1399;47.072;15.452;2023-12-20T11:42:43;10.90;49.20
2783;DHT22;1399;47.072;15.452;2023-12-20T11:45:14;11.00;49.40
2783;DHT22;1399;47.072;15.452;2023-12-20T11:47:46;11.00;49.40
2783;DHT22;1399;47.072;15.452;2023-12-20T11:50:13;11.00;49.40
2783;DHT22;1399;47.072;15.452;2023-12-20T11:52:38;11.00;49.30
2783;DHT22;1399;47.072;15.452;2023-12-20T11:55:04;11.10;49.40
2783;DHT22;1399;47.072;15.452;2023-12-20T11:57:31;11.10;49.40
2783;DHT22;1399;47.072;15.452;2023-12-20T11:59:57;11.10;49.30
2783;DHT22;1399;47.072;15.452;2023-12-20T12:02:22;11.10;49.30
2783;DHT22;1399;47.072;15.452;2023-12-20T12:04:49;11.10;49.30
2783;DHT22;1399;47.072;15.452;2023-12-20T12:07:18;11.20;49.40
2783;DHT22;1399;47.072;15.452;2023-12-20T12:09:44;11.20;49.40
2783;DHT22;1399;47.072;15.452;2023-12-20T12:12:12;11.20;49.40
2783;DHT22;1399;47.072;15.452;2023-12-20T12:14:38;11.20;49.40
2783;DHT22;1399;47.072;15.452;2023-12-20T12:17:04;11.30;49.40
2783;DHT22;1399;47.072;15.452;2023-12-20T12:19:30;11.30;49.30
2783;DHT22;1399;47.072;15.452;2023-12-20T12:22:15;11.30;49.30
2783;DHT22;1399;47.072;15.452;2023-12-20T12:24:46;11.30;49.30
2783;DHT22;1399;47.072;15.452;2023-12-20T12:27:13;11.30;49.30
2783;DHT22;1399;47.072;15.452;2023-12-20T12:29:40;11.30;49.30
2783;DHT22;1399;47.072;15.452;2023-12-20T12:32:09;11.30;49.30
2783;DHT22;1399;47.072;15.452;2023-12-20T12:34:36;11.30;49.30
2783;DHT22;1399;47.072;15.452;2023-12-20T12:37:03;11.30;49.30
2783;DHT22;1399;47.072;15.452;2023-12-20T12:39:30;11.40;49.40
2783;DHT22;1399;47.072;15.452;2023-12-20T12:41:56;11.40;49.40
2783;DHT22;1399;47.072;15.452;2023-12-20T12:44:23;11.40;49.40
2783;DHT22;1399;47.072;15.452;2023-12-20T12:46:52;11.40;49.40
2783;DHT22;1399;47.072;15.452;2023-12-20T12:49:22;11.40;49.40
2783;DHT22;1399;47.072;15.452;2023-12-20T12:51:48;11.40;49.50
2783;DHT22;1399;47.072;15.452;2023-12-20T12:54:13;11.40;49.50
2783;DHT22;1399;47.072;15.452;2023-12-20T12:56:42;11.40;49.50
2783;DHT22;1399;47.072;15.452;2023-12-20T12:59:08;11.40;49.60
2783;DHT22;1399;47.072;15.452;2023-12-20T13:01:34;11.40;49.50
2783;DHT22;1399;47.072;15.452;2023-12-20T13:03:59;11.40;49.40
2783;DHT22;1399;47.072;15.452;2023-12-20T13:06:28;11.40;49.40
2783;DHT22;1399;47.072;15.452;2023-12-20T13:08:54;11.40;49.50
2783;DHT22;1399;47.072;15.452;2023-12-20T13:11:20;11.50;49.50
2783;DHT22;1399;47.072;15.452;2023-12-20T13:13:46;11.40;49.50
2783;DHT22;1399;47.072;15.452;2023-12-20T13:16:12;11.50;49.50
2783;DHT22;1399;47.072;15.452;2023-12-20T13:18:38;11.50;49.50
2783;DHT22;1399;47.072;15.452;2023-12-20T13:21:08;11.40;49.50
2783;DHT22;1399;47.072;15.452;2023-12-20T13:23:34;11.50;49.50
2783;DHT22;1399;47.072;15.452;2023-12-20T13:26:00;11.50;49.60
2783;DHT22;1399;47.072;15.452;2023-12-20T13:28:25;11.50;49.60
2783;DHT22;1399;47.072;15.452;2023-12-20T13:30:51;11.50;49.60
2783;DHT22;1399;47.072;15.452;2023-12-20T13:33:17;11.50;49.60
2783;DHT22;1399;47.072;15.452;2023-12-20T13:35:42;11.50;49.60
2783;DHT22;1399;47.072;15.452;2023-12-20T13:38:08;11.60;49.60
2783;DHT22;1399;47.072;15.452;2023-12-20T13:40:34;11.60;49.60
2783;DHT22;1399;47.072;15.452;2023-12-20T13:42:59;11.50;49.60
2783;DHT22;1399;47.072;15.452;2023-12-20T13:45:25;11.60;49.70
2783;DHT22;1399;47.072;15.452;2023-12-20T13:47:51;11.60;49.90
2783;DHT22;1399;47.072;15.452;2023-12-20T13:50:16;11.60;49.90
2783;DHT22;1399;47.072;15.452;2023-12-20T13:52:42;11.60;49.90
2783;DHT22;1399;47.072;15.452;2023-12-20T13:55:09;11.60;49.90
2783;DHT22;1399;47.072;15.452;2023-12-20T13:57:35;11.60;49.80
2783;DHT22;1399;47.072;15.452;2023-12-20T14:00:04;11.60;49.90
2783;DHT22;1399;47.072;15.452;2023-12-20T14:02:30;11.60;49.90
2783;DHT22;1399;47.072;15.452;2023-12-20T14:04:56;11.60;49.90
2783;DHT22;1399;47.072;15.452;2023-12-20T14:07:21;11.60;50.00
2783;DHT22;1399;47.072;15.452;2023-12-20T14:09:47;11.60;50.00
2783;DHT22;1399;47.072;15.452;2023-12-20T14:12:13;11.60;50.00
2783;DHT22;1399;47.072;15.452;2023-12-20T14:14:39;11.60;50.10
2783;DHT22;1399;47.072;15.452;2023-12-20T14:17:05;11.60;49.60
2783;DHT22;1399;47.072;15.452;2023-12-20T14:19:34;11.50;50.10
2783;DHT22;1399;47.072;15.452;2023-12-20T14:22:00;11.50;50.20
2783;DHT22;1399;47.072;15.452;2023-12-20T14:24:27;11.50;50.20
2783;DHT22;1399;47.072;15.452;2023-12-20T14:26:53;11.50;50.20
2783;DHT22;1399;47.072;15.452;2023-12-20T14:29:19;11.50;50.30
2783;DHT22;1399;47.072;15.452;2023-12-20T14:31:45;11.50;50.40
2783;DHT22;1399;47.072;15.452;2023-12-20T14:34:10;11.50;50.50
2783;DHT22;1399;47.072;15.452;2023-12-20T14:36:37;11.50;50.60
2783;DHT22;1399;47.072;15.452;2023-12-20T14:39:03;11.50;50.60
2783;DHT22;1399;47.072;15.452;2023-12-20T14:41:30;11.50;50.60
2783;DHT22;1399;47.072;15.452;2023-12-20T14:43:56;11.50;50.70
2783;DHT22;1399;47.072;15.452;2023-12-20T14:46:22;11.50;50.70
2783;DHT22;1399;47.072;15.452;2023-12-20T14:48:47;11.40;50.80
2783;DHT22;1399;47.072;15.452;2023-12-20T14:51:15;11.40;50.80
2783;DHT22;1399;47.072;15.452;2023-12-20T14:53:40;11.40;50.90
2783;DHT22;1399;47.072;15.452;2023-12-20T14:56:07;11.40;50.90
2783;DHT22;1399;47.072;15.452;2023-12-20T14:58:33;11.40;51.00
2783;DHT22;1399;47.072;15.452;2023-12-20T15:01:00;11.40;51.00
2783;DHT22;1399;47.072;15.452;2023-12-20T15:03:25;11.30;51.10
2783;DHT22;1399;47.072;15.452;2023-12-20T15:05:51;11.30;51.10
2783;DHT22;1399;47.072;15.452;2023-12-20T15:08:17;11.30;51.20
2783;DHT22;1399;47.072;15.452;2023-12-20T15:10:42;11.30;51.20
2783;DHT22;1399;47.072;15.452;2023-12-20T15:13:08;11.30;51.30
2783;DHT22;1399;47.072;15.452;2023-12-20T15:15:34;11.30;51.30
2783;DHT22;1399;47.072;15.452;2023-12-20T15:18:00;11.30;51.40
2783;DHT22;1399;47.072;15.452;2023-12-20T15:20:29;11.20;51.30
2783;DHT22;1399;47.072;15.452;2023-12-20T15:22:54;11.20;51.40
2783;DHT22;1399;47.072;15.452;2023-12-20T15:25:20;11.20;51.50
2783;DHT22;1399;47.072;15.452;2023-12-20T15:27:48;11.10;51.50
2783;DHT22;1399;47.072;15.452;2023-12-20T15:30:19;11.10;51.50
2783;DHT22;1399;47.072;15.452;2023-12-20T15:32:45;11.10;51.60
2783;DHT22;1399;47.072;15.452;2023-12-20T15:35:11;11.10;51.80
2783;DHT22;1399;47.072;15.452;2023-12-20T15:37:38;11.10;51.80
2783;DHT22;1399;47.072;15.452;2023-12-20T15:40:04;11.10;51.80
2783;DHT22;1399;47.072;15.452;2023-12-20T15:42:30;11.00;51.80
2783;DHT22;1399;47.072;15.452;2023-12-20T15:44:57;11.00;51.80
2783;DHT22;1399;47.072;15.452;2023-12-20T15:47:23;11.00;51.90
2783;DHT22;1399;47.072;15.452;2023-12-20T15:49:49;11.00;52.00
2783;DHT22;1399;47.072;15.452;2023-12-20T15:52:15;11.00;52.10
2783;DHT22;1399;47.072;15.452;2023-12-20T15:54:40;10.90;52.00
2783;DHT22;1399;47.072;15.452;2023-12-20T15:57:07;10.90;52.00
2783;DHT22;1399;47.072;15.452;2023-12-20T15:59:32;10.90;52.10
2783;DHT22;1399;47.072;15.452;2023-12-20T16:01:58;10.90;52.10
2783;DHT22;1399;47.072;15.452;2023-12-20T16:04:24;10.80;52.00
2783;DHT22;1399;47.072;15.452;2023-12-20T16:06:49;10.80;52.00